Terminal Aerodrome Forecast
Issued by NWS Binghamton, NY

Home | Current Version | Previous Version | Text Only | Print | Product List | Glossary On
Versions: 1 2 3 4 5 6 7 8 9 10 11 12 13 14 15 16 17 18 19
615
FTUS41 KBGM 101137
TAFSYR
TAF
KSYR 101137Z 1012/1112 23004KT P6SM OVC050
      TEMPO 1012/1015 2SM -SN OVC025
     FM101500 25008KT 2SM -SHSN OVC012
     FM110300 27012KT 3/4SM -SN OVC009=

USA.gov is the U.S. government's official web portal to all federal, state and local government web resources and services.